Time,TemperatureF,DewpointF,PressureIn,WindDirection,WindDirectionDegrees,WindSpeedMPH,WindSpeedGustMPH,Humidity,HourlyPrecipIn,Conditions,Clouds,dailyrainin,SolarRadiationWatts/m^2,SoftwareType,DateUTC
2013-09-19 00:03:00,56.0,53.4,29.51,North,355,0.0,0.0,91,0.00,,,0.00,0,WeatherCatV1.02B3,2013-09-19 07:03:00,
2013-09-19 00:08:00,55.8,52.9,29.51,North,355,0.0,0.0,90,0.00,,,0.00,0,WeatherCatV1.02B3,2013-09-19 07:08:00,
2013-09-19 00:13:00,55.5,52.6,29.51,North,355,0.0,0.0,90,0.00,,,0.00,0,WeatherCatV1.02B3,2013-09-19 07:13:00,
2013-09-19 00:18:00,55.2,52.3,29.51,North,355,0.0,0.0,90,0.00,,,0.00,0,WeatherCatV1.02B3,2013-09-19 07:18:00,
2013-09-19 00:23:00,55.1,52.2,29.51,North,355,0.0,0.0,90,0.00,,,0.00,0,WeatherCatV1.02B3,2013-09-19 07:23:00,
2013-09-19 00:28:00,55.5,52.9,29.51,North,5,0.0,0.0,91,0.00,,,0.00,0,WeatherCatV1.02B3,2013-09-19 07:28:00,
2013-09-19 00:33:00,55.3,52.7,29.51,North,5,0.0,0.0,91,0.00,,,0.00,0,WeatherCatV1.02B3,2013-09-19 07:33:00,
2013-09-19 00:38:00,55.1,52.2,29.51,North,5,0.0,0.0,90,0.00,,,0.00,0,WeatherCatV1.02B3,2013-09-19 07:38:00,
2013-09-19 00:43:00,54.5,51.6,29.51,North,5,0.0,0.0,90,0.00,,,0.00,0,WeatherCatV1.02B3,2013-09-19 07:43:00,
2013-09-19 00:48:00,54.6,52.0,29.51,North,5,0.0,0.0,91,0.00,,,0.00,0,WeatherCatV1.02B3,2013-09-19 07:48:00,
2013-09-19 00:53:00,54.3,51.4,29.51,North,5,0.0,0.0,90,0.00,,,0.00,0,WeatherCatV1.02B3,2013-09-19 07:53:00,
2013-09-19 00:58:00,54.2,51.3,29.51,North,5,0.0,0.0,90,0.00,,,0.00,0,WeatherCatV1.02B3,2013-09-19 07:58:00,
2013-09-19 01:03:00,53.7,50.8,29.51,North,5,0.0,0.0,90,0.00,,,0.00,0,WeatherCatV1.02B3,2013-09-19 08:03:00,
2013-09-19 01:08:00,53.9,51.3,29.51,North,5,0.0,0.0,91,0.00,,,0.00,0,WeatherCatV1.02B3,2013-09-19 08:08:00,
2013-09-19 01:13:00,54.2,51.6,29.51,North,5,0.0,0.0,91,0.00,,,0.00,0,WeatherCatV1.02B3,2013-09-19 08:13:00,
2013-09-19 01:18:00,54.1,51.5,29.51,North,5,0.0,0.0,91,0.00,,,0.00,0,WeatherCatV1.02B3,2013-09-19 08:18:00,
2013-09-19 01:23:00,54.1,51.5,29.51,North,5,0.0,1.0,91,0.00,,,0.00,0,WeatherCatV1.02B3,2013-09-19 08:23:00,
2013-09-19 01:28:00,54.1,51.5,29.51,North,5,0.0,0.0,91,0.00,,,0.00,0,WeatherCatV1.02B3,2013-09-19 08:28:00,
2013-09-19 01:33:00,54.4,52.1,29.51,North,5,0.0,2.0,92,0.00,,,0.00,0,WeatherCatV1.02B3,2013-09-19 08:33:00,
2013-09-19 01:38:00,54.7,52.4,29.51,North,5,0.0,0.0,92,0.00,,,0.00,0,WeatherCatV1.02B3,2013-09-19 08:38:00,
2013-09-19 01:43:00,54.4,51.8,29.51,North,5,0.0,0.0,91,0.00,,,0.00,0,WeatherCatV1.02B3,2013-09-19 08:43:00,
2013-09-19 01:48:00,54.0,51.4,29.51,North,5,0.0,0.0,91,0.00,,,0.00,0,WeatherCatV1.02B3,2013-09-19 08:48:00,
2013-09-19 01:53:00,53.7,51.1,29.51,North,5,0.0,0.0,91,0.00,,,0.00,0,WeatherCatV1.02B3,2013-09-19 08:53:00,
2013-09-19 01:58:00,53.4,50.8,29.51,North,5,0.0,0.0,91,0.00,,,0.00,0,WeatherCatV1.02B3,2013-09-19 08:58:00,
2013-09-19 02:03:00,53.0,50.4,29.51,North,5,0.0,0.0,91,0.00,,,0.00,0,WeatherCatV1.02B3,2013-09-19 09:03:00,
2013-09-19 02:08:00,53.2,50.9,29.51,North,5,0.0,0.0,92,0.00,,,0.00,0,WeatherCatV1.02B3,2013-09-19 09:08:00,
2013-09-19 02:13:00,53.1,50.5,29.51,North,5,0.0,0.0,91,0.00,,,0.00,0,WeatherCatV1.02B3,2013-09-19 09:13:00,
2013-09-19 02:18:00,52.9,50.6,29.51,North,5,0.0,0.0,92,0.00,,,0.00,0,WeatherCatV1.02B3,2013-09-19 09:18:00,
2013-09-19 02:23:00,53.1,50.8,29.51,North,5,0.0,0.0,92,0.00,,,0.00,0,WeatherCatV1.02B3,2013-09-19 09:23:00,
2013-09-19 02:28:00,53.4,51.1,29.51,North,5,0.0,0.0,92,0.00,,,0.00,0,WeatherCatV1.02B3,2013-09-19 09:28:00,
2013-09-19 02:33:00,52.7,50.1,29.51,North,5,0.0,0.0,91,0.00,,,0.00,0,WeatherCatV1.02B3,2013-09-19 09:33:00,
2013-09-19 02:38:00,52.4,49.8,29.51,North,5,0.0,0.0,91,0.00,,,0.00,0,WeatherCatV1.02B3,2013-09-19 09:38:00,
2013-09-19 02:43:00,52.3,50.0,29.51,North,5,0.0,0.0,92,0.00,,,0.00,0,WeatherCatV1.02B3,2013-09-19 09:43:00,
2013-09-19 02:48:00,52.4,50.1,29.51,North,5,0.0,0.0,92,0.00,,,0.00,0,WeatherCatV1.02B3,2013-09-19 09:48:00,
2013-09-19 02:53:00,52.7,50.7,29.51,North,5,0.0,0.0,93,0.00,,,0.00,0,WeatherCatV1.02B3,2013-09-19 09:53:00,
2013-09-19 02:58:00,52.6,50.3,29.51,North,5,0.0,0.0,92,0.00,,,0.00,0,WeatherCatV1.02B3,2013-09-19 09:58:00,
2013-09-19 03:03:00,52.5,50.2,29.51,North,5,0.0,0.0,92,0.00,,,0.00,0,WeatherCatV1.02B3,2013-09-19 10:03:00,
2013-09-19 03:08:00,52.4,50.4,29.51,North,5,0.0,0.0,93,0.00,,,0.00,0,WeatherCatV1.02B3,2013-09-19 10:08:00,
2013-09-19 03:13:00,52.6,50.6,29.51,North,5,0.0,0.0,93,0.00,,,0.00,0,WeatherCatV1.02B3,2013-09-19 10:13:00,
2013-09-19 03:18:00,52.5,50.5,29.51,North,5,0.0,0.0,93,0.00,,,0.00,0,WeatherCatV1.02B3,2013-09-19 10:18:00,
2013-09-19 03:23:00,52.2,49.9,29.51,North,5,0.0,0.0,92,0.00,,,0.00,0,WeatherCatV1.02B3,2013-09-19 10:23:00,
2013-09-19 03:28:00,52.0,50.0,29.51,North,5,0.0,0.0,93,0.00,,,0.00,0,WeatherCatV1.02B3,2013-09-19 10:28:00,
2013-09-19 03:33:00,52.5,50.5,29.51,North,5,0.0,0.0,93,0.00,,,0.00,0,WeatherCatV1.02B3,2013-09-19 10:33:00,
2013-09-19 03:38:00,52.2,50.2,29.51,North,5,0.0,1.0,93,0.00,,,0.00,0,WeatherCatV1.02B3,2013-09-19 10:38:00,
2013-09-19 03:43:00,52.2,50.2,29.51,North,5,0.0,0.0,93,0.00,,,0.00,0,WeatherCatV1.02B3,2013-09-19 10:43:00,
2013-09-19 03:48:00,52.4,50.4,29.51,North,5,0.0,0.0,93,0.00,,,0.00,0,WeatherCatV1.02B3,2013-09-19 10:48:00,
2013-09-19 03:53:00,52.1,50.1,29.51,North,5,0.0,0.0,93,0.00,,,0.00,0,WeatherCatV1.02B3,2013-09-19 10:53:00,
2013-09-19 03:58:00,51.9,49.9,29.51,North,5,0.0,0.0,93,0.00,,,0.00,0,WeatherCatV1.02B3,2013-09-19 10:58:00,
2013-09-19 04:03:00,51.8,49.8,29.51,North,5,0.0,1.0,93,0.00,,,0.00,0,WeatherCatV1.02B3,2013-09-19 11:03:00,
2013-09-19 04:08:00,52.6,50.9,29.51,NE,53,0.0,2.0,94,0.00,,,0.00,0,WeatherCatV1.02B3,2013-09-19 11:08:00,
2013-09-19 04:14:00,52.9,51.2,29.51,NE,42,0.0,0.0,94,0.00,,,0.00,0,WeatherCatV1.02B3,2013-09-19 11:14:00,
2013-09-19 04:18:00,53.2,51.5,29.51,NE,56,1.0,1.0,94,0.00,,,0.00,0,WeatherCatV1.02B3,2013-09-19 11:18:00,
2013-09-19 04:24:00,52.7,50.7,29.51,NE,54,0.0,2.0,93,0.00,,,0.00,0,WeatherCatV1.02B3,2013-09-19 11:24:00,
2013-09-19 04:29:00,52.6,50.6,29.51,NE,54,0.0,1.0,93,0.00,,,0.00,0,WeatherCatV1.02B3,2013-09-19 11:29:00,
2013-09-19 04:34:00,52.5,50.5,29.51,NE,54,0.0,1.0,93,0.00,,,0.00,0,WeatherCatV1.02B3,2013-09-19 11:34:00,
2013-09-19 04:39:00,52.6,50.6,29.51,North,355,0.0,2.0,93,0.00,,,0.00,0,WeatherCatV1.02B3,2013-09-19 11:39:00,
2013-09-19 04:44:00,52.5,50.5,29.51,North,355,0.0,0.0,93,0.00,,,0.00,0,WeatherCatV1.02B3,2013-09-19 11:44:00,
2013-09-19 04:49:00,52.5,50.5,29.51,North,355,0.0,0.0,93,0.00,,,0.00,0,WeatherCatV1.02B3,2013-09-19 11:49:00,
2013-09-19 04:54:00,52.2,49.9,29.51,North,355,0.0,0.0,92,0.00,,,0.00,0,WeatherCatV1.02B3,2013-09-19 11:54:00,
2013-09-19 04:59:00,51.4,49.2,29.51,North,355,0.0,0.0,92,0.00,,,0.00,0,WeatherCatV1.02B3,2013-09-19 11:59:00,
2013-09-19 05:04:00,51.2,49.2,29.51,North,355,0.0,0.0,93,0.00,,,0.00,0,WeatherCatV1.02B3,2013-09-19 12:04:00,
2013-09-19 05:09:00,51.2,49.2,29.51,North,355,0.0,0.0,93,0.00,,,0.00,0,WeatherCatV1.02B3,2013-09-19 12:09:00,
2013-09-19 05:14:00,50.8,48.8,29.51,North,355,0.0,0.0,93,0.00,,,0.00,0,WeatherCatV1.02B3,2013-09-19 12:14:00,
2013-09-19 05:19:00,50.5,48.6,29.51,North,355,0.0,0.0,93,0.00,,,0.00,0,WeatherCatV1.02B3,2013-09-19 12:19:00,
2013-09-19 05:24:00,50.8,49.1,29.51,North,355,0.0,0.0,94,0.00,,,0.00,0,WeatherCatV1.02B3,2013-09-19 12:24:00,
2013-09-19 05:29:00,50.8,48.8,29.51,North,355,0.0,0.0,93,0.00,,,0.00,0,WeatherCatV1.02B3,2013-09-19 12:29:00,
2013-09-19 05:34:00,50.6,48.7,29.51,North,355,0.0,0.0,93,0.00,,,0.00,0,WeatherCatV1.02B3,2013-09-19 12:34:00,
2013-09-19 05:39:00,50.4,48.5,29.51,North,355,0.0,0.0,93,0.00,,,0.00,0,WeatherCatV1.02B3,2013-09-19 12:39:00,
2013-09-19 05:44:00,51.1,49.4,29.51,North,0,0.0,2.0,94,0.00,,,0.00,0,WeatherCatV1.02B3,2013-09-19 12:44:00,
2013-09-19 05:49:00,51.2,49.5,29.51,North,0,0.0,0.0,94,0.00,,,0.00,0,WeatherCatV1.02B3,2013-09-19 12:49:00,
2013-09-19 05:54:00,51.1,49.1,29.51,North,0,0.0,0.0,93,0.00,,,0.00,0,WeatherCatV1.02B3,2013-09-19 12:54:00,
2013-09-19 05:59:00,50.8,49.1,29.51,North,0,0.0,0.0,94,0.00,,,0.00,0,WeatherCatV1.02B3,2013-09-19 12:59:00,
2013-09-19 06:04:00,50.6,48.7,29.51,North,0,0.0,0.0,93,0.00,,,0.00,0,WeatherCatV1.02B3,2013-09-19 13:04:00,
2013-09-19 06:09:00,50.2,48.3,29.51,North,0,0.0,0.0,93,0.00,,,0.00,0,WeatherCatV1.02B3,2013-09-19 13:09:00,
2013-09-19 06:14:00,49.5,47.6,29.51,North,0,0.0,0.0,93,0.00,,,0.00,0,WeatherCatV1.02B3,2013-09-19 13:14:00,
2013-09-19 06:19:00,49.5,47.6,29.51,North,0,0.0,0.0,93,0.00,,,0.00,0,WeatherCatV1.02B3,2013-09-19 13:19:00,
2013-09-19 06:24:00,49.6,47.9,29.51,North,0,0.0,0.0,94,0.00,,,0.00,0,WeatherCatV1.02B3,2013-09-19 13:24:00,
2013-09-19 06:29:00,50.2,48.5,29.51,North,0,0.0,0.0,94,0.00,,,0.00,0,WeatherCatV1.02B3,2013-09-19 13:29:00,
2013-09-19 06:34:00,49.8,48.1,29.51,North,0,0.0,0.0,94,0.00,,,0.00,0,WeatherCatV1.02B3,2013-09-19 13:34:00,
2013-09-19 06:39:00,49.2,47.3,29.51,North,0,0.0,0.0,93,0.00,,,0.00,0,WeatherCatV1.02B3,2013-09-19 13:39:00,
2013-09-19 06:44:00,49.3,47.6,29.51,North,0,0.0,0.0,94,0.00,,,0.00,0,WeatherCatV1.02B3,2013-09-19 13:44:00,
2013-09-19 06:49:00,49.4,47.7,29.51,North,0,0.0,0.0,94,0.00,,,0.00,5,WeatherCatV1.02B3,2013-09-19 13:49:00,
2013-09-19 06:54:00,49.6,47.9,29.51,NNE,18,0.0,1.0,94,0.00,,,0.00,9,WeatherCatV1.02B3,2013-09-19 13:54:00,
2013-09-19 06:59:00,50.5,49.1,29.51,NNE,19,0.0,0.0,95,0.00,,,0.00,11,WeatherCatV1.02B3,2013-09-19 13:59:00,
2013-09-19 07:04:00,50.5,48.8,29.51,NNE,19,0.0,0.0,94,0.00,,,0.00,12,WeatherCatV1.02B3,2013-09-19 14:04:00,
2013-09-19 07:09:00,49.9,48.0,29.51,NNE,19,0.0,0.0,93,0.00,,,0.00,14,WeatherCatV1.02B3,2013-09-19 14:09:00,
2013-09-19 07:14:00,49.6,47.9,29.51,NNE,19,0.0,0.0,94,0.00,,,0.00,16,WeatherCatV1.02B3,2013-09-19 14:14:00,
2013-09-19 07:19:00,49.6,47.9,29.51,NNE,19,0.0,0.0,94,0.00,,,0.00,19,WeatherCatV1.02B3,2013-09-19 14:19:00,
2013-09-19 07:24:00,50.9,49.5,29.51,NE,34,0.0,0.0,95,0.00,,,0.00,21,WeatherCatV1.02B3,2013-09-19 14:24:00,
2013-09-19 07:29:00,51.0,49.3,29.51,NE,34,0.0,1.0,94,0.00,,,0.00,23,WeatherCatV1.02B3,2013-09-19 14:29:00,
2013-09-19 07:34:00,50.6,48.9,29.51,NE,34,0.0,0.0,94,0.00,,,0.00,25,WeatherCatV1.02B3,2013-09-19 14:34:00,
2013-09-19 07:39:00,50.6,48.9,29.51,NE,34,0.0,0.0,94,0.00,,,0.00,26,WeatherCatV1.02B3,2013-09-19 14:39:00,
2013-09-19 07:44:00,51.9,50.5,29.51,NE,39,1.0,3.0,95,0.00,,,0.00,28,WeatherCatV1.02B3,2013-09-19 14:44:00,
2013-09-19 07:49:00,52.7,51.0,29.51,ENE,69,1.0,1.0,94,0.00,,,0.00,32,WeatherCatV1.02B3,2013-09-19 14:49:00,
2013-09-19 07:54:00,52.4,50.4,29.51,ENE,78,0.0,0.0,93,0.00,,,0.00,32,WeatherCatV1.02B3,2013-09-19 14:54:00,
2013-09-19 07:59:00,52.7,50.7,29.51,ENE,78,0.0,0.0,93,0.00,,,0.00,35,WeatherCatV1.02B3,2013-09-19 14:59:00,
2013-09-19 08:04:00,53.1,51.1,29.51,ENE,78,0.0,0.0,93,0.00,,,0.00,35,WeatherCatV1.02B3,2013-09-19 15:04:00,
2013-09-19 08:09:00,53.6,51.6,29.51,ENE,78,0.0,0.0,93,0.00,,,0.00,37,WeatherCatV1.02B3,2013-09-19 15:09:00,
2013-09-19 08:14:00,54.4,52.1,29.51,ENE,78,0.0,0.0,92,0.00,,,0.00,40,WeatherCatV1.02B3,2013-09-19 15:14:00,
2013-09-19 08:19:00,55.3,52.7,29.51,ENE,78,0.0,0.0,91,0.00,,,0.00,81,WeatherCatV1.02B3,2013-09-19 15:19:00,
2013-09-19 08:24:00,55.8,52.6,29.51,ENE,78,0.0,0.0,89,0.00,,,0.00,223,WeatherCatV1.02B3,2013-09-19 15:24:00,
2013-09-19 08:29:00,57.0,53.5,29.51,ENE,78,0.0,0.0,88,0.00,,,0.00,244,WeatherCatV1.02B3,2013-09-19 15:29:00,
2013-09-19 08:34:00,57.9,53.7,29.51,ENE,78,0.0,0.0,86,0.00,,,0.00,258,WeatherCatV1.02B3,2013-09-19 15:34:00,
2013-09-19 08:39:00,59.3,54.5,29.51,ENE,78,0.0,0.0,84,0.00,,,0.00,274,WeatherCatV1.02B3,2013-09-19 15:39:00,
2013-09-19 08:44:00,60.4,55.2,29.51,ENE,78,0.0,0.0,83,0.00,,,0.00,290,WeatherCatV1.02B3,2013-09-19 15:44:00,
2013-09-19 08:49:00,61.7,55.5,29.51,SSE,154,0.0,0.0,80,0.00,,,0.00,306,WeatherCatV1.02B3,2013-09-19 15:49:00,
2013-09-19 08:54:00,62.7,55.7,29.51,SSE,157,0.0,0.0,78,0.00,,,0.00,320,WeatherCatV1.02B3,2013-09-19 15:54:00,
2013-09-19 08:59:00,63.5,55.8,29.51,SW,234,0.0,0.0,76,0.00,,,0.00,336,WeatherCatV1.02B3,2013-09-19 15:59:00,
2013-09-19 09:04:00,64.4,55.9,29.51,SW,234,0.0,0.0,74,0.00,,,0.00,348,WeatherCatV1.02B3,2013-09-19 16:04:00,
2013-09-19 09:09:00,65.3,55.6,29.51,SE,142,0.0,2.0,71,0.00,,,0.00,367,WeatherCatV1.02B3,2013-09-19 16:09:00,
2013-09-19 09:14:00,65.5,56.2,29.51,WSW,246,1.0,2.0,72,0.00,,,0.00,404,WeatherCatV1.02B3,2013-09-19 16:14:00,
2013-09-19 09:19:00,66.1,56.0,29.51,SW,230,0.0,2.0,70,0.00,,,0.00,425,WeatherCatV1.02B3,2013-09-19 16:19:00,
2013-09-19 09:24:00,66.7,56.6,29.51,West,259,1.0,2.0,70,0.00,,,0.00,443,WeatherCatV1.02B3,2013-09-19 16:24:00,
2013-09-19 09:29:00,67.6,57.5,29.51,WNW,287,0.0,0.0,70,0.00,,,0.00,459,WeatherCatV1.02B3,2013-09-19 16:29:00,
2013-09-19 09:34:00,68.5,57.1,29.51,West,279,1.0,1.0,67,0.00,,,0.00,473,WeatherCatV1.02B3,2013-09-19 16:34:00,
2013-09-19 09:39:00,68.9,57.9,29.51,SW,223,0.0,1.0,68,0.00,,,0.00,489,WeatherCatV1.02B3,2013-09-19 16:39:00,
2013-09-19 09:44:00,69.8,57.9,29.51,SSE,147,0.0,2.0,66,0.00,,,0.00,503,WeatherCatV1.02B3,2013-09-19 16:44:00,
2013-09-19 09:49:00,70.4,58.9,29.51,WNW,286,0.0,2.0,67,0.00,,,0.00,517,WeatherCatV1.02B3,2013-09-19 16:49:00,
2013-09-19 09:54:00,70.9,59.0,29.51,SSE,150,0.0,2.0,66,0.00,,,0.00,531,WeatherCatV1.02B3,2013-09-19 16:54:00,
2013-09-19 09:59:00,71.5,59.1,29.51,WNW,292,0.0,3.0,65,0.00,,,0.00,471,WeatherCatV1.02B3,2013-09-19 16:59:00,
2013-09-19 10:04:00,72.2,59.3,29.51,NW,321,1.0,4.0,64,0.00,,,0.00,559,WeatherCatV1.02B3,2013-09-19 17:04:00,
2013-09-19 10:09:00,72.1,59.2,29.51,NW,317,1.0,6.0,64,0.00,,,0.00,571,WeatherCatV1.02B3,2013-09-19 17:09:00,
2013-09-19 10:14:00,71.9,59.0,29.51,NW,309,3.0,6.0,64,0.00,,,0.00,582,WeatherCatV1.02B3,2013-09-19 17:14:00,
2013-09-19 10:19:00,72.2,59.8,29.51,West,262,6.0,6.0,65,0.00,,,0.00,592,WeatherCatV1.02B3,2013-09-19 17:19:00,
2013-09-19 10:24:00,72.5,59.2,29.51,NW,307,3.0,5.0,63,0.00,,,0.00,608,WeatherCatV1.02B3,2013-09-19 17:24:00,
2013-09-19 10:29:00,72.6,59.7,29.51,WNW,292,5.0,7.0,64,0.00,,,0.00,619,WeatherCatV1.02B3,2013-09-19 17:29:00,
2013-09-19 10:34:00,73.3,59.9,29.51,WSW,254,2.0,7.0,63,0.00,,,0.00,633,WeatherCatV1.02B3,2013-09-19 17:34:00,
2013-09-19 10:39:00,73.8,60.4,29.51,WSW,248,3.0,4.0,63,0.00,,,0.00,645,WeatherCatV1.02B3,2013-09-19 17:39:00,
2013-09-19 10:44:00,73.9,60.0,29.51,West,273,2.0,8.0,62,0.00,,,0.00,652,WeatherCatV1.02B3,2013-09-19 17:44:00,
2013-09-19 10:49:00,74.0,60.6,29.51,WSW,258,6.0,6.0,63,0.00,,,0.00,663,WeatherCatV1.02B3,2013-09-19 17:49:00,
2013-09-19 10:54:00,74.0,60.1,29.51,NW,314,3.0,6.0,62,0.00,,,0.00,457,WeatherCatV1.02B3,2013-09-19 17:54:00,
2013-09-19 10:59:00,73.9,60.5,29.51,West,275,5.0,6.0,63,0.00,,,0.00,682,WeatherCatV1.02B3,2013-09-19 17:59:00,
2013-09-19 11:04:00,74.5,60.6,29.51,WNW,296,5.0,6.0,62,0.00,,,0.00,693,WeatherCatV1.02B3,2013-09-19 18:04:00,
2013-09-19 11:09:00,75.2,61.3,29.51,NW,316,2.0,3.0,62,0.00,,,0.00,705,WeatherCatV1.02B3,2013-09-19 18:09:00,
2013-09-19 11:14:00,75.5,60.2,29.51,WNW,286,8.0,8.0,59,0.00,,,0.00,714,WeatherCatV1.02B3,2013-09-19 18:14:00,
2013-09-19 11:19:00,75.1,61.2,29.51,WSW,255,2.0,4.0,62,0.00,,,0.00,721,WeatherCatV1.02B3,2013-09-19 18:19:00,
2013-09-19 11:24:00,76.6,60.7,29.51,West,275,3.0,5.0,58,0.00,,,0.00,726,WeatherCatV1.02B3,2013-09-19 18:24:00,
2013-09-19 11:29:00,76.3,60.9,29.51,SW,236,2.0,7.0,59,0.00,,,0.00,735,WeatherCatV1.02B3,2013-09-19 18:29:00,
2013-09-19 11:34:00,76.7,60.8,29.51,West,278,7.0,7.0,58,0.00,,,0.00,744,WeatherCatV1.02B3,2013-09-19 18:34:00,
2013-09-19 11:39:00,76.8,59.9,29.51,NW,306,3.0,4.0,56,0.00,,,0.00,747,WeatherCatV1.02B3,2013-09-19 18:39:00,
2013-09-19 11:44:00,77.3,60.4,29.51,ESE,102,0.0,1.0,56,0.00,,,0.00,756,WeatherCatV1.02B3,2013-09-19 18:44:00,
2013-09-19 11:49:00,77.8,59.8,29.51,East,86,6.0,6.0,54,0.00,,,0.00,761,WeatherCatV1.02B3,2013-09-19 18:49:00,
2013-09-19 11:54:00,78.7,60.1,29.51,WSW,247,0.0,1.0,53,0.00,,,0.00,768,WeatherCatV1.02B3,2013-09-19 18:54:00,
2013-09-19 11:59:00,79.0,60.4,29.51,East,101,3.0,3.0,53,0.00,,,0.00,773,WeatherCatV1.02B3,2013-09-19 18:59:00,
2013-09-19 12:04:00,79.5,60.3,29.51,WSW,256,2.0,3.0,52,0.00,,,0.00,775,WeatherCatV1.02B3,2013-09-19 19:04:00,
2013-09-19 12:09:00,78.9,60.8,29.51,East,95,2.0,5.0,54,0.00,,,0.00,779,WeatherCatV1.02B3,2013-09-19 19:09:00,
2013-09-19 12:15:00,78.9,60.3,29.51,ENE,74,3.0,7.0,53,0.00,,,0.00,782,WeatherCatV1.02B3,2013-09-19 19:15:00,
2013-09-19 12:20:00,79.9,60.7,29.51,East,90,1.0,5.0,52,0.00,,,0.00,786,WeatherCatV1.02B3,2013-09-19 19:20:00,
2013-09-19 12:25:00,80.1,61.4,29.51,West,267,2.0,3.0,53,0.00,,,0.00,788,WeatherCatV1.02B3,2013-09-19 19:25:00,
2013-09-19 12:30:00,80.6,61.3,29.51,WNW,288,3.0,6.0,52,0.00,,,0.00,789,WeatherCatV1.02B3,2013-09-19 19:30:00,
2013-09-19 12:35:00,80.7,60.9,29.51,West,281,2.0,6.0,51,0.00,,,0.00,791,WeatherCatV1.02B3,2013-09-19 19:35:00,
2013-09-19 12:40:00,80.8,61.0,29.51,East,91,3.0,3.0,51,0.00,,,0.00,795,WeatherCatV1.02B3,2013-09-19 19:40:00,
2013-09-19 12:45:00,79.9,60.1,29.51,NE,37,0.0,3.0,51,0.00,,,0.00,793,WeatherCatV1.02B3,2013-09-19 19:45:00,
2013-09-19 12:50:00,80.2,61.0,29.51,WSW,256,1.0,2.0,52,0.00,,,0.00,795,WeatherCatV1.02B3,2013-09-19 19:50:00,
2013-09-19 12:55:00,81.7,61.8,29.51,West,259,4.0,5.0,51,0.00,,,0.00,793,WeatherCatV1.02B3,2013-09-19 19:55:00,
2013-09-19 13:00:00,81.7,61.2,29.51,West,263,1.0,4.0,50,0.00,,,0.00,795,WeatherCatV1.02B3,2013-09-19 20:00:00,
2013-09-19 13:05:00,81.7,61.8,29.51,NNE,23,0.0,5.0,51,0.00,,,0.00,789,WeatherCatV1.02B3,2013-09-19 20:05:00,
2013-09-19 13:10:00,81.3,62.0,29.51,SE,134,0.0,4.0,52,0.00,,,0.00,791,WeatherCatV1.02B3,2013-09-19 20:10:00,
2013-09-19 13:15:00,81.2,61.3,29.51,WSW,248,4.0,4.0,51,0.00,,,0.00,789,WeatherCatV1.02B3,2013-09-19 20:15:00,
2013-09-19 13:20:00,81.8,61.3,29.51,West,269,2.0,6.0,50,0.00,,,0.00,784,WeatherCatV1.02B3,2013-09-19 20:20:00,
2013-09-19 13:25:00,82.8,61.7,29.51,ENE,78,0.0,3.0,49,0.00,,,0.00,784,WeatherCatV1.02B3,2013-09-19 20:25:00,
2013-09-19 13:30:00,82.9,61.2,29.51,ENE,65,1.0,3.0,48,0.00,,,0.00,784,WeatherCatV1.02B3,2013-09-19 20:30:00,
2013-09-19 13:35:00,82.2,61.1,29.51,NNE,15,4.0,4.0,49,0.00,,,0.00,779,WeatherCatV1.02B3,2013-09-19 20:35:00,
2013-09-19 13:40:00,81.9,61.4,29.51,NW,323,4.0,5.0,50,0.00,,,0.00,773,WeatherCatV1.02B3,2013-09-19 20:40:00,
2013-09-19 13:45:00,81.1,61.2,29.51,West,261,5.0,9.0,51,0.00,,,0.00,766,WeatherCatV1.02B3,2013-09-19 20:45:00,
2013-09-19 13:50:00,80.7,61.4,29.51,West,271,9.0,9.0,52,0.00,,,0.00,761,WeatherCatV1.02B3,2013-09-19 20:50:00,
2013-09-19 13:55:00,80.9,61.6,29.51,West,272,7.0,9.0,52,0.00,,,0.00,758,WeatherCatV1.02B3,2013-09-19 20:55:00,
2013-09-19 14:00:00,80.4,61.1,29.51,West,268,2.0,9.0,52,0.00,,,0.00,751,WeatherCatV1.02B3,2013-09-19 21:00:00,
2013-09-19 14:05:00,80.3,61.6,29.51,WNW,284,6.0,7.0,53,0.00,,,0.00,744,WeatherCatV1.02B3,2013-09-19 21:05:00,
2013-09-19 14:10:00,80.3,61.6,29.51,West,270,9.0,9.0,53,0.00,,,0.00,737,WeatherCatV1.02B3,2013-09-19 21:10:00,
2013-09-19 14:15:00,80.3,61.0,29.51,West,276,3.0,9.0,52,0.00,,,0.00,729,WeatherCatV1.02B3,2013-09-19 21:15:00,
2013-09-19 14:20:00,80.2,61.5,29.51,West,271,3.0,8.0,53,0.00,,,0.00,726,WeatherCatV1.02B3,2013-09-19 21:20:00,
2013-09-19 14:25:00,80.1,61.4,29.51,West,267,4.0,6.0,53,0.00,,,0.00,715,WeatherCatV1.02B3,2013-09-19 21:25:00,
2013-09-19 14:30:00,80.1,61.9,29.51,WNW,284,5.0,6.0,54,0.00,,,0.00,708,WeatherCatV1.02B3,2013-09-19 21:30:00,
2013-09-19 14:35:00,80.1,61.4,29.51,WNW,286,4.0,5.0,53,0.00,,,0.00,698,WeatherCatV1.02B3,2013-09-19 21:35:00,
2013-09-19 14:40:00,79.9,61.2,29.51,WNW,292,6.0,9.0,53,0.00,,,0.00,691,WeatherCatV1.02B3,2013-09-19 21:40:00,
2013-09-19 14:45:00,79.6,60.9,29.51,West,279,6.0,8.0,53,0.00,,,0.00,682,WeatherCatV1.02B3,2013-09-19 21:45:00,
2013-09-19 14:50:00,80.3,61.6,29.51,West,270,3.0,7.0,53,0.00,,,0.00,671,WeatherCatV1.02B3,2013-09-19 21:50:00,
2013-09-19 14:55:00,81.7,61.8,29.51,NW,306,5.0,7.0,51,0.00,,,0.00,661,WeatherCatV1.02B3,2013-09-19 21:55:00,
2013-09-19 15:00:00,81.6,61.1,29.51,WNW,291,2.0,7.0,50,0.00,,,0.00,650,WeatherCatV1.02B3,2013-09-19 22:00:00,
2013-09-19 15:05:00,81.0,61.1,29.51,NW,317,3.0,7.0,51,0.00,,,0.00,640,WeatherCatV1.02B3,2013-09-19 22:05:00,
2013-09-19 15:10:00,80.7,61.4,29.51,WNW,284,6.0,10.0,52,0.00,,,0.00,452,WeatherCatV1.02B3,2013-09-19 22:10:00,
2013-09-19 15:15:00,80.1,60.9,29.51,West,267,4.0,8.0,52,0.00,,,0.00,615,WeatherCatV1.02B3,2013-09-19 22:15:00,
2013-09-19 15:20:00,80.5,61.2,29.51,WNW,302,3.0,7.0,52,0.00,,,0.00,605,WeatherCatV1.02B3,2013-09-19 22:20:00,
2013-09-19 15:25:00,81.1,61.2,29.51,West,276,2.0,6.0,51,0.00,,,0.00,591,WeatherCatV1.02B3,2013-09-19 22:25:00,
2013-09-19 15:30:00,80.9,60.5,29.51,NW,308,1.0,11.0,50,0.00,,,0.00,578,WeatherCatV1.02B3,2013-09-19 22:30:00,
2013-09-19 15:35:00,80.5,60.7,29.51,WSW,255,6.0,8.0,51,0.00,,,0.00,570,WeatherCatV1.02B3,2013-09-19 22:35:00,
2013-09-19 15:40:00,79.9,60.7,29.51,WNW,282,7.0,7.0,52,0.00,,,0.00,552,WeatherCatV1.02B3,2013-09-19 22:40:00,
2013-09-19 15:45:00,79.9,60.7,29.51,WNW,291,7.0,8.0,52,0.00,,,0.00,540,WeatherCatV1.02B3,2013-09-19 22:45:00,
2013-09-19 15:50:00,79.7,60.5,29.51,West,271,6.0,8.0,52,0.00,,,0.00,529,WeatherCatV1.02B3,2013-09-19 22:50:00,
2013-09-19 15:55:00,79.7,61.0,29.51,WNW,284,5.0,7.0,53,0.00,,,0.00,515,WeatherCatV1.02B3,2013-09-19 22:55:00,
2013-09-19 16:00:00,79.7,61.0,29.51,WSW,248,4.0,7.0,53,0.00,,,0.00,501,WeatherCatV1.02B3,2013-09-19 23:00:00,
2013-09-19 16:05:00,79.8,60.6,29.51,West,280,3.0,7.0,52,0.00,,,0.00,485,WeatherCatV1.02B3,2013-09-19 23:05:00,
2013-09-19 16:10:00,79.6,60.9,29.51,West,276,3.0,8.0,53,0.00,,,0.00,471,WeatherCatV1.02B3,2013-09-19 23:10:00,
2013-09-19 16:15:00,78.8,60.7,29.51,West,269,5.0,8.0,54,0.00,,,0.00,457,WeatherCatV1.02B3,2013-09-19 23:15:00,
2013-09-19 16:20:00,78.4,60.9,29.51,West,272,6.0,8.0,55,0.00,,,0.00,441,WeatherCatV1.02B3,2013-09-19 23:20:00,
2013-09-19 16:25:00,78.0,61.0,29.51,WNW,289,4.0,8.0,56,0.00,,,0.00,429,WeatherCatV1.02B3,2013-09-19 23:25:00,
2013-09-19 16:30:00,77.9,60.9,29.51,NW,313,1.0,6.0,56,0.00,,,0.00,413,WeatherCatV1.02B3,2013-09-19 23:30:00,
2013-09-19 16:35:00,77.9,60.9,29.51,West,272,5.0,5.0,56,0.00,,,0.00,399,WeatherCatV1.02B3,2013-09-19 23:35:00,
2013-09-19 16:40:00,77.7,60.7,29.51,WNW,290,3.0,7.0,56,0.00,,,0.00,380,WeatherCatV1.02B3,2013-09-19 23:40:00,
2013-09-19 16:45:00,77.1,60.7,29.51,West,279,5.0,7.0,57,0.00,,,0.00,366,WeatherCatV1.02B3,2013-09-19 23:45:00,
2013-09-19 16:50:00,76.2,60.8,29.51,NW,304,6.0,8.0,59,0.00,,,0.00,348,WeatherCatV1.02B3,2013-09-19 23:50:00,
2013-09-19 16:55:00,75.4,60.5,29.51,NW,304,6.0,8.0,60,0.00,,,0.00,334,WeatherCatV1.02B3,2013-09-19 23:55:00,
2013-09-19 17:00:00,75.1,60.7,29.51,West,271,6.0,9.0,61,0.00,,,0.00,320,WeatherCatV1.02B3,2013-09-20 00:00:00,
2013-09-19 17:05:00,75.0,60.6,29.51,West,270,5.0,6.0,61,0.00,,,0.00,302,WeatherCatV1.02B3,2013-09-20 00:05:00,
2013-09-19 17:10:00,75.0,60.6,29.51,West,271,3.0,7.0,61,0.00,,,0.00,287,WeatherCatV1.02B3,2013-09-20 00:10:00,
2013-09-19 17:15:00,74.5,60.6,29.51,WNW,297,4.0,8.0,62,0.00,,,0.00,269,WeatherCatV1.02B3,2013-09-20 00:15:00,
2013-09-19 17:20:00,74.4,61.0,29.51,WNW,290,3.0,5.0,63,0.00,,,0.00,253,WeatherCatV1.02B3,2013-09-20 00:20:00,
2013-09-19 17:25:00,74.5,60.6,29.51,WSW,248,3.0,5.0,62,0.00,,,0.00,237,WeatherCatV1.02B3,2013-09-20 00:25:00,
2013-09-19 17:30:00,74.4,60.5,29.51,West,275,3.0,5.0,62,0.00,,,0.00,221,WeatherCatV1.02B3,2013-09-20 00:30:00,
2013-09-19 17:35:00,74.3,60.4,29.51,WNW,290,2.0,5.0,62,0.00,,,0.00,206,WeatherCatV1.02B3,2013-09-20 00:35:00,
2013-09-19 17:40:00,74.0,60.6,29.51,WNW,288,3.0,4.0,63,0.00,,,0.00,186,WeatherCatV1.02B3,2013-09-20 00:40:00,
2013-09-19 17:45:00,73.3,60.4,29.51,WNW,295,5.0,5.0,64,0.00,,,0.00,165,WeatherCatV1.02B3,2013-09-20 00:45:00,
2013-09-19 17:50:00,72.8,60.3,29.51,WSW,257,3.0,5.0,65,0.00,,,0.00,146,WeatherCatV1.02B3,2013-09-20 00:50:00,
2013-09-19 17:55:00,72.3,60.3,29.51,West,266,3.0,5.0,66,0.00,,,0.00,127,WeatherCatV1.02B3,2013-09-20 00:55:00,
2013-09-19 18:00:00,71.7,60.1,29.51,WSW,254,4.0,5.0,67,0.00,,,0.00,109,WeatherCatV1.02B3,2013-09-20 01:00:00,
2013-09-19 18:05:00,71.1,60.0,29.51,West,259,4.0,6.0,68,0.00,,,0.00,91,WeatherCatV1.02B3,2013-09-20 01:05:00,
2013-09-19 18:10:00,70.6,59.9,29.51,West,281,3.0,5.0,69,0.00,,,0.00,44,WeatherCatV1.02B3,2013-09-20 01:10:00,
2013-09-19 18:15:00,70.1,59.8,29.51,WNW,284,2.0,4.0,70,0.00,,,0.00,35,WeatherCatV1.02B3,2013-09-20 01:15:00,
2013-09-19 18:20:00,69.5,59.7,29.51,West,273,2.0,4.0,71,0.00,,,0.00,28,WeatherCatV1.02B3,2013-09-20 01:20:00,
2013-09-19 18:25:00,68.9,59.5,29.51,WNW,288,2.0,4.0,72,0.00,,,0.00,25,WeatherCatV1.02B3,2013-09-20 01:25:00,
2013-09-19 18:30:00,68.5,59.5,29.51,WSW,252,4.0,6.0,73,0.00,,,0.00,21,WeatherCatV1.02B3,2013-09-20 01:30:00,
2013-09-19 18:35:00,67.9,59.7,29.51,West,269,4.0,4.0,75,0.00,,,0.00,19,WeatherCatV1.02B3,2013-09-20 01:35:00,
2013-09-19 18:40:00,67.5,59.7,29.51,WSW,258,2.0,6.0,76,0.00,,,0.00,16,WeatherCatV1.02B3,2013-09-20 01:40:00,
2013-09-19 18:45:00,67.0,59.2,29.51,WNW,290,1.0,1.0,76,0.00,,,0.00,12,WeatherCatV1.02B3,2013-09-20 01:45:00,
2013-09-19 18:50:00,66.6,59.2,29.51,West,279,2.0,2.0,77,0.00,,,0.00,9,WeatherCatV1.02B3,2013-09-20 01:50:00,
2013-09-19 18:55:00,66.1,59.0,29.51,West,267,2.0,2.0,78,0.00,,,0.00,5,WeatherCatV1.02B3,2013-09-20 01:55:00,
2013-09-19 19:00:00,65.7,59.0,29.51,West,269,0.0,0.0,79,0.00,,,0.00,0,WeatherCatV1.02B3,2013-09-20 02:00:00,
2013-09-19 19:05:00,65.1,58.8,29.51,West,269,0.0,1.0,80,0.00,,,0.00,0,WeatherCatV1.02B3,2013-09-20 02:05:00,
2013-09-19 19:10:00,64.7,58.7,29.51,WNW,282,0.0,2.0,81,0.00,,,0.00,0,WeatherCatV1.02B3,2013-09-20 02:10:00,
2013-09-19 19:15:00,64.4,58.8,29.51,West,270,1.0,2.0,82,0.00,,,0.00,0,WeatherCatV1.02B3,2013-09-20 02:15:00,
2013-09-19 19:20:00,64.2,58.6,29.51,West,270,0.0,2.0,82,0.00,,,0.00,0,WeatherCatV1.02B3,2013-09-20 02:20:00,
2013-09-19 19:25:00,64.0,58.4,29.51,West,270,0.0,0.0,82,0.00,,,0.00,0,WeatherCatV1.02B3,2013-09-20 02:25:00,
2013-09-19 19:30:00,63.8,58.5,29.51,West,270,0.0,0.0,83,0.00,,,0.00,0,WeatherCatV1.02B3,2013-09-20 02:30:00,
2013-09-19 19:35:00,63.5,58.2,29.51,West,270,0.0,1.0,83,0.00,,,0.00,0,WeatherCatV1.02B3,2013-09-20 02:35:00,
2013-09-19 19:40:00,63.2,58.3,29.51,West,270,0.0,1.0,84,0.00,,,0.00,0,WeatherCatV1.02B3,2013-09-20 02:40:00,
2013-09-19 19:45:00,63.0,58.1,29.51,West,270,0.0,1.0,84,0.00,,,0.00,0,WeatherCatV1.02B3,2013-09-20 02:45:00,
2013-09-19 19:50:00,62.7,57.8,29.51,West,270,0.0,1.0,84,0.00,,,0.00,0,WeatherCatV1.02B3,2013-09-20 02:50:00,
2013-09-19 19:55:00,62.4,57.8,29.51,West,270,0.0,0.0,85,0.00,,,0.00,0,WeatherCatV1.02B3,2013-09-20 02:55:00,
2013-09-19 20:00:00,62.3,57.7,29.51,West,270,0.0,0.0,85,0.00,,,0.00,0,WeatherCatV1.02B3,2013-09-20 03:00:00,
2013-09-19 20:05:00,62.1,57.5,29.51,West,270,0.0,0.0,85,0.00,,,0.00,0,WeatherCatV1.02B3,2013-09-20 03:05:00,
2013-09-19 20:10:00,62.0,57.8,29.51,West,270,0.0,0.0,86,0.00,,,0.00,0,WeatherCatV1.02B3,2013-09-20 03:10:00,
2013-09-19 20:15:00,61.6,57.4,29.51,West,270,0.0,0.0,86,0.00,,,0.00,0,WeatherCatV1.02B3,2013-09-20 03:15:00,
2013-09-19 20:20:00,61.3,57.4,29.51,West,270,0.0,0.0,87,0.00,,,0.00,0,WeatherCatV1.02B3,2013-09-20 03:20:00,
2013-09-19 20:25:00,61.3,57.4,29.51,West,270,0.0,0.0,87,0.00,,,0.00,0,WeatherCatV1.02B3,2013-09-20 03:25:00,
2013-09-19 20:30:00,61.1,57.2,29.51,West,270,0.0,0.0,87,0.00,,,0.00,0,WeatherCatV1.02B3,2013-09-20 03:30:00,
2013-09-19 20:35:00,60.9,57.3,29.51,West,270,0.0,0.0,88,0.00,,,0.00,0,WeatherCatV1.02B3,2013-09-20 03:35:00,
2013-09-19 20:40:00,60.8,57.2,29.51,West,270,0.0,0.0,88,0.00,,,0.00,0,WeatherCatV1.02B3,2013-09-20 03:40:00,
2013-09-19 20:45:00,60.7,57.1,29.51,West,270,0.0,0.0,88,0.00,,,0.00,0,WeatherCatV1.02B3,2013-09-20 03:45:00,
2013-09-19 20:50:00,60.4,56.8,29.51,West,270,0.0,0.0,88,0.00,,,0.00,0,WeatherCatV1.02B3,2013-09-20 03:50:00,
2013-09-19 20:55:00,60.3,56.7,29.51,West,270,0.0,0.0,88,0.00,,,0.00,0,WeatherCatV1.02B3,2013-09-20 03:55:00,
2013-09-19 21:00:00,60.2,56.6,29.51,West,270,0.0,0.0,88,0.00,,,0.00,0,WeatherCatV1.02B3,2013-09-20 04:00:00,
2013-09-19 21:01:00,60.1,56.5,29.51,West,270,0.0,0.0,88,0.00,,,0.00,0,WeatherCatV1.02B3,2013-09-20 04:01:00,
2013-09-19 21:06:00,59.7,56.1,29.51,West,270,0.0,0.0,88,0.00,,,0.00,0,WeatherCatV1.02B3,2013-09-20 04:06:00,
2013-09-19 21:11:00,59.7,56.4,29.51,West,270,0.0,0.0,89,0.00,,,0.00,0,WeatherCatV1.02B3,2013-09-20 04:11:00,
2013-09-19 21:16:00,59.4,56.2,29.51,NW,320,0.0,0.0,89,0.00,,,0.00,0,WeatherCatV1.02B3,2013-09-20 04:16:00,
2013-09-19 21:21:00,59.8,56.9,29.51,NNE,24,0.0,1.0,90,0.00,,,0.00,0,WeatherCatV1.02B3,2013-09-20 04:21:00,
2013-09-19 21:26:00,60.0,57.1,29.51,NNE,24,0.0,1.0,90,0.00,,,0.00,0,WeatherCatV1.02B3,2013-09-20 04:26:00,
2013-09-19 21:31:00,59.8,56.9,29.51,NNE,24,0.0,0.0,90,0.00,,,0.00,0,WeatherCatV1.02B3,2013-09-20 04:31:00,
2013-09-19 21:36:00,59.8,56.9,29.51,NNE,24,0.0,1.0,90,0.00,,,0.00,0,WeatherCatV1.02B3,2013-09-20 04:36:00,
2013-09-19 21:41:00,59.9,57.0,29.51,NNE,24,0.0,0.0,90,0.00,,,0.00,0,WeatherCatV1.02B3,2013-09-20 04:41:00,
2013-09-19 21:46:00,59.5,56.6,29.51,NNE,24,0.0,0.0,90,0.00,,,0.00,0,WeatherCatV1.02B3,2013-09-20 04:46:00,
2013-09-19 21:51:00,59.0,56.1,29.51,NNE,24,0.0,0.0,90,0.00,,,0.00,0,WeatherCatV1.02B3,2013-09-20 04:51:00,
2013-09-19 21:56:00,59.0,56.1,29.51,NNE,24,0.0,0.0,90,0.00,,,0.00,0,WeatherCatV1.02B3,2013-09-20 04:56:00,
2013-09-19 22:01:00,59.2,56.6,29.51,NNE,24,0.0,0.0,91,0.00,,,0.00,0,WeatherCatV1.02B3,2013-09-20 05:01:00,
2013-09-19 22:06:00,59.6,57.0,29.51,NNE,24,0.0,0.0,91,0.00,,,0.00,0,WeatherCatV1.02B3,2013-09-20 05:06:00,
2013-09-19 22:11:00,60.2,57.6,29.51,NNE,24,0.0,0.0,91,0.00,,,0.00,0,WeatherCatV1.02B3,2013-09-20 05:11:00,
2013-09-19 22:16:00,60.4,57.5,29.51,NNE,24,0.0,0.0,90,0.00,,,0.00,0,WeatherCatV1.02B3,2013-09-20 05:16:00,
2013-09-19 22:21:00,60.8,58.2,29.51,NNE,24,0.0,0.0,91,0.00,,,0.00,0,WeatherCatV1.02B3,2013-09-20 05:21:00,
2013-09-19 22:26:00,61.1,58.4,29.51,NNE,23,0.0,0.0,91,0.00,,,0.00,0,WeatherCatV1.02B3,2013-09-20 05:26:00,
2013-09-19 22:31:00,61.1,58.1,29.51,NNE,23,0.0,0.0,90,0.00,,,0.00,0,WeatherCatV1.02B3,2013-09-20 05:31:00,
2013-09-19 22:36:00,61.1,58.1,29.51,NNE,23,0.0,0.0,90,0.00,,,0.00,0,WeatherCatV1.02B3,2013-09-20 05:36:00,
2013-09-19 22:41:00,61.3,58.6,29.51,NNE,23,0.0,0.0,91,0.00,,,0.00,0,WeatherCatV1.02B3,2013-09-20 05:41:00,
2013-09-19 22:46:00,61.3,58.3,29.51,NNE,23,0.0,0.0,90,0.00,,,0.00,0,WeatherCatV1.02B3,2013-09-20 05:46:00,
2013-09-19 22:51:00,61.2,58.2,29.51,NNE,23,0.0,0.0,90,0.00,,,0.00,0,WeatherCatV1.02B3,2013-09-20 05:51:00,
2013-09-19 22:56:00,61.2,58.2,29.51,NNE,23,0.0,0.0,90,0.00,,,0.00,0,WeatherCatV1.02B3,2013-09-20 05:56:00,
2013-09-19 23:01:00,61.2,58.2,29.51,NNE,23,0.0,0.0,90,0.00,,,0.00,0,WeatherCatV1.02B3,2013-09-20 06:01:00,
2013-09-19 23:06:00,61.1,58.1,29.51,NNE,23,0.0,0.0,90,0.00,,,0.00,0,WeatherCatV1.02B3,2013-09-20 06:06:00,
2013-09-19 23:11:00,60.8,57.8,29.51,NNE,23,0.0,0.0,90,0.00,,,0.00,0,WeatherCatV1.02B3,2013-09-20 06:11:00,
2013-09-19 23:16:00,60.6,57.6,29.51,NNE,23,0.0,0.0,90,0.00,,,0.00,0,WeatherCatV1.02B3,2013-09-20 06:16:00,
2013-09-19 23:21:00,60.1,57.2,29.51,NNE,23,0.0,0.0,90,0.00,,,0.00,0,WeatherCatV1.02B3,2013-09-20 06:21:00,
2013-09-19 23:26:00,59.9,57.3,29.51,NNE,23,0.0,0.0,91,0.00,,,0.00,0,WeatherCatV1.02B3,2013-09-20 06:26:00,
2013-09-19 23:31:00,59.6,56.7,29.51,NNE,23,0.0,0.0,90,0.00,,,0.00,0,WeatherCatV1.02B3,2013-09-20 06:31:00,
2013-09-19 23:36:00,59.2,56.6,29.51,NNE,23,0.0,0.0,91,0.00,,,0.00,0,WeatherCatV1.02B3,2013-09-20 06:36:00,
2013-09-19 23:41:00,59.0,56.4,29.51,NNE,23,0.0,0.0,91,0.00,,,0.00,0,WeatherCatV1.02B3,2013-09-20 06:41:00,
2013-09-19 23:46:00,59.1,56.8,29.51,NNE,26,0.0,1.0,92,0.00,,,0.00,0,WeatherCatV1.02B3,2013-09-20 06:46:00,
2013-09-19 23:51:00,59.4,57.1,29.51,NNE,26,0.0,0.0,92,0.00,,,0.00,0,WeatherCatV1.02B3,2013-09-20 06:51:00,
2013-09-19 23:56:00,59.5,57.2,29.51,NNE,26,0.0,0.0,92,0.00,,,0.00,0,WeatherCatV1.02B3,2013-09-20 06:56:00,